Terminal Aerodrome Forecast
Issued by NWS Cleveland, OH

Home | Current Version | Previous Version | Graphics & Text | Print | Product List | Glossary On
Versions: 1 2 3 4 5 6 7 8 9 10 11 12 13 14 15 16 17 18 19 20 21 22 23
000
FTUS41 KCLE 271133
TAFERI
TAF
KERI 271133Z 2712/2812 07010KT 6SM -SHRA BR OVC100
      TEMPO 2712/2714 5SM -RA BR OVC035
     FM271400 09018G28KT 4SM -SHRA BR SCT004 OVC012
      TEMPO 2714/2718 2SM SHRA BR OVC004
     FM271800 09020G32KT 4SM SHRA BR VCTS SCT004 OVC025CB
     FM280300 05012KT 3SM -SHRA BR OVC007=

USA.gov is the U.S. government's official web portal to all federal, state and local government web resources and services.